Time;durP1;ratioP1;P1;durP2;ratioP2;P2;SDS_P1;SDS_P2;PMS_P1;PMS_P2;Temp;Humidity;BMP_temperature;BMP_pressure;BME280_temperature;BME280_humidity;BME280_pressure;Samples;Min_cycle;Max_cycle;Signal;HPM_P1;HPM_P2
2022/03/28 00:00:55;;;;;;;0.00;0.00;;;6.40;99.90;;;;;;5055127;28;20118;-79
2022/03/28 00:03:23;;;;;;;0.00;0.00;;;6.50;99.90;;;;;;5055387;28;20389;-78
2022/03/28 00:05:49;;;;;;;2.30;0.20;;;6.50;99.90;;;;;;5038911;28;20057;-78
2022/03/28 00:08:15;;;;;;;2.38;0.93;;;6.60;99.90;;;;;;5055008;28;20366;-79
2022/03/28 00:10:41;;;;;;;0.00;0.00;;;6.60;99.90;;;;;;5038064;28;20044;-79
2022/03/28 00:13:06;;;;;;;0.00;0.00;;;6.70;99.90;;;;;;5055077;28;20138;-78
2022/03/28 00:15:32;;;;;;;0.00;0.00;;;6.50;99.90;;;;;;5054951;28;20484;-78
2022/03/28 00:17:58;;;;;;;0.00;0.00;;;6.50;99.90;;;;;;5038516;28;20053;-78
2022/03/28 00:20:24;;;;;;;0.00;0.00;;;6.50;99.90;;;;;;5055051;28;20489;-78
2022/03/28 00:22:50;;;;;;;0.00;0.00;;;6.00;99.90;;;;;;5038272;28;20084;-79
2022/03/28 00:25:16;;;;;;;0.00;0.00;;;6.40;99.90;;;;;;5038144;28;20045;-79
2022/03/28 00:27:42;;;;;;;0.00;0.00;;;6.40;99.90;;;;;;5038026;28;20052;-78
2022/03/28 00:30:09;;;;;;;0.00;0.00;;;6.40;99.90;;;;;;5037649;28;20037;-78
2022/03/28 00:32:35;;;;;;;0.00;0.00;;;6.30;99.90;;;;;;5038194;28;20071;-78
2022/03/28 00:35:03;;;;;;;0.00;0.00;;;6.90;99.90;;;;;;5038457;28;20465;-78
2022/03/28 00:37:29;;;;;;;0.20;0.20;;;6.40;99.90;;;;;;5054281;28;20131;-78
2022/03/28 00:39:55;;;;;;;0.00;0.00;;;6.30;99.90;;;;;;5054564;28;20233;-78
2022/03/28 00:42:21;;;;;;;0.00;0.00;;;6.40;99.90;;;;;;5054401;28;20060;-78
2022/03/28 00:44:46;;;;;;;0.00;0.00;;;6.30;99.90;;;;;;5053920;28;20072;-78
2022/03/28 00:47:12;;;;;;;0.55;0.00;;;6.40;99.90;;;;;;5054104;28;20052;-78
2022/03/28 00:49:38;;;;;;;0.00;0.00;;;6.40;99.90;;;;;;5054140;28;20136;-79
2022/03/28 00:52:04;;;;;;;1.48;0.47;;;6.80;99.90;;;;;;5054081;28;20464;-79
2022/03/28 00:54:30;;;;;;;0.00;0.00;;;6.30;99.90;;;;;;5054344;28;20084;-78
2022/03/28 00:56:56;;;;;;;0.00;0.00;;;6.40;99.90;;;;;;5037584;28;20091;-78
2022/03/28 00:59:24;;;;;;;0.00;0.00;;;6.40;99.90;;;;;;5037210;28;20127;-79
2022/03/28 01:01:50;;;;;;;0.00;0.00;;;6.40;99.90;;;;;;5037571;28;20068;-79
2022/03/28 01:04:18;;;;;;;0.00;0.00;;;6.30;99.90;;;;;;5053639;28;20485;-78
2022/03/28 01:06:44;;;;;;;0.00;0.00;;;6.30;99.90;;;;;;5052976;28;20128;-79
2022/03/28 01:09:09;;;;;;;0.00;0.00;;;7.00;99.90;;;;;;5053962;28;20287;-79
2022/03/28 01:11:36;;;;;;;0.00;0.00;;;6.20;99.90;;;;;;5036575;28;20550;-79
2022/03/28 01:14:05;;;;;;;0.00;0.00;;;6.10;99.90;;;;;;5037277;28;20099;-79
2022/03/28 01:19:18;;;;;;;0.00;0.00;;;6.10;99.90;;;;;;5054038;28;20045;-78
2022/03/28 01:21:44;;;;;;;0.00;0.00;;;6.20;99.90;;;;;;5037094;28;20139;-78
2022/03/28 01:24:11;;;;;;;0.15;0.10;;;6.10;99.90;;;;;;5053558;28;20131;-78
2022/03/28 01:26:37;;;;;;;0.35;0.10;;;6.20;99.90;;;;;;5053605;28;20045;-78
2022/03/28 01:29:03;;;;;;;0.00;0.00;;;6.10;99.90;;;;;;5037494;28;20052;-79
2022/03/28 01:31:29;;;;;;;0.00;0.00;;;6.20;99.90;;;;;;5053306;28;20040;-78
2022/03/28 01:33:55;;;;;;;0.00;0.00;;;6.30;99.90;;;;;;5053095;28;20051;-79
2022/03/28 01:36:24;;;;;;;0.00;0.00;;;6.50;99.90;;;;;;5053464;28;20041;-78
2022/03/28 01:38:50;;;;;;;0.00;0.00;;;6.10;99.90;;;;;;5036626;28;20064;-78
2022/03/28 01:41:16;;;;;;;0.00;0.00;;;6.10;99.90;;;;;;5053926;28;20052;-78
2022/03/28 01:43:42;;;;;;;0.00;0.00;;;6.30;99.90;;;;;;5053325;28;20582;-78
2022/03/28 01:46:07;;;;;;;0.00;0.00;;;6.20;99.90;;;;;;5053165;28;20464;-78
2022/03/28 01:48:33;;;;;;;0.00;0.00;;;6.20;99.90;;;;;;5053191;28;20067;-79
2022/03/28 01:50:59;;;;;;;0.00;0.00;;;6.20;99.90;;;;;;5052628;28;20107;-78
2022/03/28 01:53:24;;;;;;;0.00;0.00;;;6.20;99.90;;;;;;5052782;28;20037;-78
2022/03/28 01:55:50;;;;;;;0.00;0.00;;;6.20;99.90;;;;;;5036250;28;20106;-78
2022/03/28 01:58:16;;;;;;;0.00;0.00;;;6.20;99.90;;;;;;5052583;28;20048;-78
2022/03/28 02:00:42;;;;;;;0.00;0.00;;;6.10;99.90;;;;;;5036224;28;20089;-78
2022/03/28 02:03:07;;;;;;;0.00;0.00;;;6.00;99.90;;;;;;5052920;28;20053;-78
2022/03/28 02:05:33;;;;;;;0.00;0.00;;;6.00;99.90;;;;;;5036332;28;20060;-78
2022/03/28 02:07:59;;;;;;;4.30;0.32;;;6.10;99.90;;;;;;5052535;28;20041;-78
2022/03/28 02:10:25;;;;;;;0.00;0.00;;;6.10;99.90;;;;;;5052588;28;20476;-78
2022/03/28 02:12:52;;;;;;;0.00;0.00;;;6.10;99.90;;;;;;5036590;28;20107;-78
2022/03/28 02:15:19;;;;;;;0.00;0.00;;;5.90;99.90;;;;;;5036127;28;20048;-79
2022/03/28 02:17:45;;;;;;;0.10;0.10;;;6.10;99.90;;;;;;5035511;28;20068;-78
2022/03/28 02:20:12;;;;;;;0.00;0.00;;;6.10;99.90;;;;;;5036141;28;20044;-78
2022/03/28 02:22:39;;;;;;;0.00;0.00;;;6.10;99.90;;;;;;5036261;28;20045;-78
2022/03/28 02:25:07;;;;;;;0.00;0.00;;;6.10;99.90;;;;;;5052882;28;20094;-78
2022/03/28 02:27:33;;;;;;;0.00;0.00;;;6.10;99.90;;;;;;5036179;28;20044;-79
2022/03/28 02:29:59;;;;;;;0.00;0.00;;;6.10;99.90;;;;;;5037017;28;20044;-79
2022/03/28 02:32:24;;;;;;;0.00;0.00;;;6.20;99.90;;;;;;5053018;28;20063;-79
2022/03/28 02:34:50;;;;;;;0.00;0.00;;;6.20;99.90;;;;;;5052396;28;20048;-78
2022/03/28 02:37:16;;;;;;;0.00;0.00;;;6.20;99.90;;;;;;5053126;28;20041;-78
2022/03/28 02:39:42;;;;;;;0.00;0.00;;;6.20;99.90;;;;;;5053090;28;20053;-79
2022/03/28 02:42:09;;;;;;;0.05;0.05;;;6.20;99.90;;;;;;5053111;28;20043;-79
2022/03/28 02:44:35;;;;;;;0.00;0.00;;;6.20;99.90;;;;;;5053320;28;20063;-79
2022/03/28 02:47:01;;;;;;;0.00;0.00;;;6.20;99.90;;;;;;5052837;28;20047;-78
2022/03/28 02:49:27;;;;;;;0.00;0.00;;;6.20;99.90;;;;;;5036058;28;20060;-78
2022/03/28 02:51:53;;;;;;;0.00;0.00;;;6.30;99.90;;;;;;5035936;28;20061;-78
2022/03/28 02:54:18;;;;;;;0.00;0.00;;;6.30;99.90;;;;;;5035587;28;20045;-78
2022/03/28 02:56:44;;;;;;;0.00;0.00;;;6.30;99.90;;;;;;5035522;28;20388;-79
2022/03/28 02:59:12;;;;;;;0.00;0.00;;;6.20;99.90;;;;;;5035206;28;20103;-79
2022/03/28 03:01:38;;;;;;;0.00;0.00;;;6.30;99.90;;;;;;5035584;28;20057;-79
2022/03/28 03:04:03;;;;;;;0.03;0.00;;;6.30;99.90;;;;;;5052229;28;20049;-79
2022/03/28 03:06:29;;;;;;;0.05;0.00;;;6.30;99.90;;;;;;5051995;28;20048;-78
2022/03/28 03:08:55;;;;;;;1.98;0.52;;;6.30;99.90;;;;;;5036028;28;20057;-79
2022/03/28 03:11:20;;;;;;;0.17;0.17;;;6.20;99.90;;;;;;5052546;28;20068;-78
2022/03/28 03:13:48;;;;;;;0.10;0.10;;;6.20;99.90;;;;;;5052724;28;20399;-79
2022/03/28 03:16:14;;;;;;;2.53;0.30;;;6.20;99.90;;;;;;5052739;28;20049;-79
2022/03/28 03:18:40;;;;;;;0.00;0.00;;;6.20;99.90;;;;;;5035726;28;20067;-78
2022/03/28 03:21:05;;;;;;;0.10;0.10;;;6.20;99.90;;;;;;5035759;28;20052;-78
2022/03/28 03:23:31;;;;;;;0.70;0.10;;;6.20;99.90;;;;;;5052297;28;20098;-79
2022/03/28 03:25:57;;;;;;;0.10;0.10;;;6.20;99.90;;;;;;5052065;28;20091;-78
2022/03/28 03:28:22;;;;;;;0.03;0.03;;;6.10;99.90;;;;;;5052324;28;20053;-78
2022/03/28 03:30:48;;;;;;;0.10;0.10;;;6.10;99.90;;;;;;5055704;28;20422;-79
2022/03/28 03:33:14;;;;;;;0.00;0.00;;;6.10;99.90;;;;;;5055997;28;20453;-79
2022/03/28 03:35:41;;;;;;;0.00;0.00;;;6.10;99.90;;;;;;5055853;28;20049;-79
2022/03/28 03:38:07;;;;;;;0.00;0.00;;;6.10;99.90;;;;;;5038713;28;20053;-78
2022/03/28 03:40:33;;;;;;;0.00;0.00;;;6.00;99.90;;;;;;5039220;28;20052;-78
2022/03/28 03:42:59;;;;;;;0.13;0.13;;;6.00;99.90;;;;;;5038823;28;20124;-78
2022/03/28 03:45:24;;;;;;;0.20;0.20;;;6.00;99.90;;;;;;5055588;28;20133;-79
2022/03/28 03:47:51;;;;;;;0.00;0.00;;;6.00;99.90;;;;;;5055250;28;20045;-79
2022/03/28 03:50:17;;;;;;;0.00;0.00;;;6.00;99.90;;;;;;5055566;28;20045;-79
2022/03/28 03:52:43;;;;;;;0.00;0.00;;;6.00;99.90;;;;;;5056097;28;20045;-79
2022/03/28 03:55:09;;;;;;;0.00;0.00;;;6.00;99.90;;;;;;5056075;28;20102;-79
2022/03/28 03:57:34;;;;;;;0.00;0.00;;;6.00;99.90;;;;;;5055655;28;20045;-79
2022/03/28 04:00:00;;;;;;;0.40;0.05;;;6.00;99.90;;;;;;5055256;28;20061;-79
2022/03/28 04:02:26;;;;;;;0.00;0.00;;;5.90;99.90;;;;;;5055689;28;20060;-78
2022/03/28 04:04:51;;;;;;;0.08;0.00;;;6.10;99.90;;;;;;5038812;28;20055;-79
2022/03/28 04:07:17;;;;;;;0.10;0.10;;;6.10;99.90;;;;;;5056124;28;20374;-79
2022/03/28 04:09:43;;;;;;;0.00;0.00;;;5.80;99.90;;;;;;5055423;28;20464;-78
2022/03/28 04:12:09;;;;;;;0.00;0.00;;;6.00;99.90;;;;;;5055380;28;20492;-79
2022/03/28 04:14:35;;;;;;;0.00;0.00;;;5.80;99.90;;;;;;5039058;28;20455;-79
2022/03/28 04:17:00;;;;;;;0.00;0.00;;;5.80;99.90;;;;;;5055007;28;20060;-79
2022/03/28 04:19:26;;;;;;;0.00;0.00;;;5.70;99.90;;;;;;5038659;28;20111;-79
2022/03/28 04:21:52;;;;;;;0.22;0.22;;;5.70;99.90;;;;;;5055057;28;20489;-79
2022/03/28 04:24:18;;;;;;;0.00;0.00;;;5.70;99.90;;;;;;5055053;28;20051;-79
2022/03/28 04:26:44;;;;;;;0.00;0.00;;;5.70;99.90;;;;;;5055270;28;20053;-79
2022/03/28 04:29:10;;;;;;;0.08;0.00;;;5.70;99.90;;;;;;5054860;28;20052;-79
2022/03/28 04:31:40;;;;;;;0.00;0.00;;;5.60;99.90;;;;;;5054480;28;20049;-79
2022/03/28 04:34:07;;;;;;;0.00;0.00;;;5.60;99.90;;;;;;5054834;28;20041;-79
2022/03/28 04:36:33;;;;;;;0.80;0.55;;;5.60;99.90;;;;;;5055152;28;20055;-79
2022/03/28 04:38:59;;;;;;;0.55;0.32;;;5.60;99.90;;;;;;5054619;28;20045;-79
2022/03/28 04:41:25;;;;;;;0.00;0.00;;;5.70;99.90;;;;;;5053950;28;20053;-79
2022/03/28 04:43:51;;;;;;;0.17;0.00;;;5.70;99.90;;;;;;5054261;28;20052;-79
2022/03/28 04:46:17;;;;;;;0.10;0.10;;;5.70;99.90;;;;;;5054329;28;20045;-79
2022/03/28 04:48:43;;;;;;;0.00;0.00;;;5.70;99.90;;;;;;5054375;28;20388;-79
2022/03/28 04:51:09;;;;;;;0.00;0.00;;;5.70;99.90;;;;;;5054241;28;20044;-79
2022/03/28 04:53:35;;;;;;;0.28;0.28;;;5.70;99.90;;;;;;5054101;28;20053;-79
2022/03/28 04:56:00;;;;;;;0.00;0.00;;;5.70;99.90;;;;;;5037570;28;20148;-79
2022/03/28 04:58:26;;;;;;;0.30;0.30;;;5.70;99.90;;;;;;5053702;28;20099;-79
2022/03/28 05:00:52;;;;;;;0.00;0.00;;;5.70;99.90;;;;;;5054099;28;20045;-79
2022/03/28 05:03:18;;;;;;;0.00;0.00;;;5.70;99.90;;;;;;5054075;28;20166;-79
2022/03/28 05:05:44;;;;;;;0.20;0.00;;;5.70;99.90;;;;;;5054602;28;20507;-79
2022/03/28 05:08:10;;;;;;;0.00;0.00;;;5.80;99.90;;;;;;5054674;28;20547;-79
2022/03/28 05:10:36;;;;;;;0.10;0.10;;;5.80;99.90;;;;;;5037291;28;20045;-79
2022/03/28 05:13:02;;;;;;;0.00;0.00;;;5.80;99.90;;;;;;5054102;28;20495;-79
2022/03/28 05:15:27;;;;;;;0.20;0.20;;;5.80;99.90;;;;;;5054098;28;20124;-79
2022/03/28 05:17:53;;;;;;;0.00;0.00;;;5.80;99.90;;;;;;5037522;28;20485;-79
2022/03/28 05:20:19;;;;;;;0.00;0.00;;;5.80;99.90;;;;;;5054003;28;20052;-79
2022/03/28 05:22:45;;;;;;;0.20;0.20;;;5.80;99.90;;;;;;5037257;28;20057;-79
2022/03/28 05:25:14;;;;;;;0.00;0.00;;;5.80;99.90;;;;;;5053341;28;20115;-79
2022/03/28 05:27:47;;;;;;;0.10;0.10;;;5.90;99.90;;;;;;5036884;28;20075;-79
2022/03/28 05:30:14;;;;;;;0.00;0.00;;;5.90;99.90;;;;;;5053429;28;20044;-79
2022/03/28 05:32:40;;;;;;;0.63;0.22;;;5.90;99.90;;;;;;5053102;28;20037;-79
2022/03/28 05:35:06;;;;;;;0.30;0.15;;;5.90;99.90;;;;;;5053408;28;20036;-79
2022/03/28 05:37:33;;;;;;;0.22;0.22;;;6.00;99.90;;;;;;5036377;28;20057;-79
2022/03/28 05:39:59;;;;;;;0.00;0.00;;;6.00;99.90;;;;;;5053701;28;20382;-80
2022/03/28 05:42:25;;;;;;;0.20;0.20;;;6.00;99.90;;;;;;5052797;28;20053;-79
2022/03/28 05:44:51;;;;;;;0.00;0.00;;;6.00;99.90;;;;;;5036722;28;20060;-80
2022/03/28 05:47:17;;;;;;;0.00;0.00;;;6.00;99.90;;;;;;5053616;28;20049;-79
2022/03/28 05:49:42;;;;;;;0.00;0.00;;;5.90;99.90;;;;;;5053330;28;20045;-79
2022/03/28 05:52:08;;;;;;;0.00;0.00;;;6.00;99.90;;;;;;5052845;28;20132;-79
2022/03/28 05:54:34;;;;;;;0.10;0.08;;;6.10;99.90;;;;;;5052864;28;20044;-79
2022/03/28 05:57:00;;;;;;;0.00;0.00;;;5.90;99.90;;;;;;5052770;28;20396;-79
2022/03/28 05:59:26;;;;;;;0.00;0.00;;;5.90;99.90;;;;;;5035947;28;20174;-79
2022/03/28 06:01:52;;;;;;;0.13;0.13;;;6.00;99.90;;;;;;5052845;28;20145;-79
2022/03/28 06:04:18;;;;;;;0.00;0.00;;;6.00;99.90;;;;;;5036389;28;20076;-78
2022/03/28 06:06:43;;;;;;;0.30;0.10;;;5.90;99.90;;;;;;5052947;28;20055;-79
2022/03/28 06:09:09;;;;;;;0.00;0.00;;;6.00;99.90;;;;;;5053137;28;20044;-79
2022/03/28 06:11:35;;;;;;;0.05;0.05;;;6.00;99.90;;;;;;5052329;28;20041;-79
2022/03/28 06:14:01;;;;;;;0.08;0.05;;;6.00;99.90;;;;;;5052456;28;20124;-79
2022/03/28 06:16:27;;;;;;;0.00;0.00;;;6.00;99.90;;;;;;5052718;28;20056;-79
2022/03/28 06:18:53;;;;;;;0.75;0.00;;;6.00;99.90;;;;;;5036135;28;20057;-80
2022/03/28 06:21:19;;;;;;;1.95;0.10;;;6.00;99.90;;;;;;5036305;28;20050;-79
2022/03/28 06:23:45;;;;;;;0.00;0.00;;;6.00;99.90;;;;;;5052697;28;20410;-79
2022/03/28 06:26:11;;;;;;;1.02;0.17;;;5.90;99.90;;;;;;5052494;28;20052;-79
2022/03/28 06:28:39;;;;;;;0.65;0.10;;;6.00;99.90;;;;;;5052378;28;20538;-79
2022/03/28 06:31:06;;;;;;;0.00;0.00;;;6.00;99.90;;;;;;5052218;28;20055;-79
2022/03/28 06:33:31;;;;;;;0.00;0.00;;;6.00;99.90;;;;;;5035796;28;20075;-79
2022/03/28 06:35:57;;;;;;;0.10;0.10;;;6.00;99.90;;;;;;5035632;28;20052;-79
2022/03/28 06:38:23;;;;;;;0.15;0.15;;;6.00;99.90;;;;;;5052466;28;20041;-79
2022/03/28 06:40:48;;;;;;;0.10;0.00;;;6.10;99.90;;;;;;5052334;28;20128;-79
2022/03/28 06:43:14;;;;;;;0.20;0.20;;;6.00;99.90;;;;;;5052346;28;20041;-78
2022/03/28 06:45:40;;;;;;;0.60;0.10;;;6.00;99.90;;;;;;5035862;28;20056;-79
2022/03/28 06:48:06;;;;;;;0.52;0.52;;;6.10;99.90;;;;;;5052378;28;20037;-79
2022/03/28 06:50:34;;;;;;;0.80;0.25;;;6.10;99.90;;;;;;5051818;28;20477;-79
2022/03/28 06:53:00;;;;;;;0.00;0.00;;;6.10;99.90;;;;;;5051777;28;20121;-79
2022/03/28 06:55:26;;;;;;;0.00;0.00;;;6.10;99.90;;;;;;5052126;28;20400;-81
2022/03/28 06:57:52;;;;;;;0.00;0.00;;;6.20;99.90;;;;;;5035704;28;20088;-80
2022/03/28 07:00:19;;;;;;;0.40;0.00;;;6.20;99.90;;;;;;5051666;28;20052;-80
2022/03/28 07:02:45;;;;;;;0.00;0.00;;;6.20;99.90;;;;;;5052460;28;20044;-80
2022/03/28 07:05:11;;;;;;;0.00;0.00;;;6.20;99.90;;;;;;5055323;28;20044;-80
2022/03/28 07:07:46;;;;;;;0.03;0.00;;;6.20;99.90;;;;;;5056376;28;20048;-80
2022/03/28 07:10:13;;;;;;;2.13;0.55;;;6.20;99.90;;;;;;5055254;28;20048;-79
2022/03/28 07:12:39;;;;;;;0.35;0.25;;;6.20;99.90;;;;;;5050128;28;20072;-81
2022/03/28 07:15:06;;;;;;;0.00;0.00;;;6.20;99.90;;;;;;5039751;28;20067;-79
2022/03/28 07:18:05;;;;;;;1.75;0.70;;;6.20;99.90;;;;;;5068876;28;20155;-80
2022/03/28 07:20:31;;;;;;;0.10;0.00;;;6.20;99.90;;;;;;5075908;28;20148;-79
2022/03/28 07:22:58;;;;;;;0.10;0.03;;;6.20;99.90;;;;;;5067461;28;20567;-81
2022/03/28 07:25:24;;;;;;;0.35;0.35;;;6.20;99.90;;;;;;5075189;28;20426;-81
2022/03/28 07:27:52;;;;;;;1.55;0.30;;;6.10;99.90;;;;;;5058210;28;20492;-79
2022/03/28 07:30:18;;;;;;;0.00;0.00;;;6.00;99.90;;;;;;5069898;28;20051;-79
2022/03/28 07:32:45;;;;;;;0.63;0.20;;;6.00;99.90;;;;;;5055483;28;20098;-79
2022/03/28 07:35:12;;;;;;;1.17;0.20;;;6.10;99.90;;;;;;5055640;28;20045;-79
2022/03/28 07:37:43;;;;;;;0.32;0.15;;;6.10;99.90;;;;;;5039692;28;20091;-79
2022/03/28 07:40:10;;;;;;;0.20;0.20;;;6.10;99.90;;;;;;5055694;28;20048;-80
2022/03/28 07:42:37;;;;;;;0.30;0.30;;;6.10;99.90;;;;;;5055794;28;20040;-79
2022/03/28 07:45:05;;;;;;;0.00;0.00;;;6.10;99.90;;;;;;5055880;28;20124;-79
2022/03/28 07:47:31;;;;;;;0.82;0.30;;;6.10;99.90;;;;;;5055611;28;20095;-79
2022/03/28 07:49:59;;;;;;;0.15;0.08;;;6.20;99.90;;;;;;5038658;28;20044;-79
2022/03/28 07:52:25;;;;;;;0.57;0.57;;;6.20;99.90;;;;;;5055528;28;20057;-79
2022/03/28 07:54:51;;;;;;;0.17;0.13;;;6.20;99.90;;;;;;5055275;28;20084;-79
2022/03/28 07:57:18;;;;;;;1.17;0.63;;;6.20;99.90;;;;;;5055204;28;20041;-80
2022/03/28 07:59:48;;;;;;;0.75;0.22;;;6.40;99.90;;;;;;5054792;28;20053;-79
2022/03/28 08:02:15;;;;;;;0.20;0.10;;;6.50;99.90;;;;;;5055047;28;20524;-79
2022/03/28 08:04:43;;;;;;;0.05;0.00;;;6.50;99.90;;;;;;5055778;28;20056;-79
2022/03/28 08:07:12;;;;;;;0.00;0.00;;;6.50;99.90;;;;;;5055148;28;20045;-79
2022/03/28 08:09:39;;;;;;;0.65;0.03;;;6.50;99.90;;;;;;5055310;28;20041;-80
2022/03/28 08:12:06;;;;;;;0.00;0.00;;;6.50;99.90;;;;;;5055410;28;20040;-79
2022/03/28 08:14:32;;;;;;;1.60;0.35;;;6.60;99.90;;;;;;5054474;28;20049;-79
2022/03/28 08:16:58;;;;;;;2.08;0.75;;;6.60;99.90;;;;;;5038513;28;20051;-79
2022/03/28 08:19:24;;;;;;;0.00;0.00;;;6.70;99.90;;;;;;5054945;28;20045;-80
2022/03/28 08:21:50;;;;;;;0.00;0.00;;;6.80;99.90;;;;;;5038557;28;20096;-79
2022/03/28 08:24:16;;;;;;;0.10;0.10;;;6.70;99.90;;;;;;5037944;28;20064;-79
2022/03/28 08:26:42;;;;;;;0.10;0.10;;;6.70;99.90;;;;;;5054718;28;20041;-79
2022/03/28 08:29:08;;;;;;;0.10;0.10;;;6.70;99.90;;;;;;5054434;28;20049;-79
2022/03/28 08:31:33;;;;;;;1.65;0.10;;;6.80;99.90;;;;;;5054931;28;20044;-79
2022/03/28 08:33:59;;;;;;;1.33;0.35;;;6.80;99.90;;;;;;5054658;28;20053;-79
2022/03/28 08:36:25;;;;;;;0.68;0.20;;;6.90;99.90;;;;;;5054801;28;20090;-79
2022/03/28 08:38:51;;;;;;;0.22;0.10;;;6.70;99.90;;;;;;5054294;28;20041;-79
2022/03/28 08:41:18;;;;;;;0.00;0.00;;;6.80;99.90;;;;;;5037520;28;20048;-80
2022/03/28 08:43:45;;;;;;;0.90;0.10;;;6.90;99.90;;;;;;5054330;28;20060;-79
2022/03/28 08:46:15;;;;;;;0.22;0.22;;;6.80;99.90;;;;;;5054216;28;20115;-79
2022/03/28 08:48:42;;;;;;;0.00;0.00;;;6.80;99.90;;;;;;5054986;28;20060;-80
2022/03/28 08:51:09;;;;;;;0.20;0.00;;;6.80;99.90;;;;;;5054894;28;20068;-79
2022/03/28 08:53:36;;;;;;;0.00;0.00;;;6.80;99.90;;;;;;5037723;28;20044;-81
2022/03/28 08:56:02;;;;;;;0.10;0.10;;;6.90;99.90;;;;;;5054299;28;20487;-80
2022/03/28 08:58:28;;;;;;;1.75;0.60;;;6.90;99.90;;;;;;5053758;28;20048;-80
2022/03/28 09:00:54;;;;;;;0.00;0.00;;;6.90;99.90;;;;;;5054271;28;20138;-80
2022/03/28 09:03:34;;;;;;;0.70;0.03;;;6.90;99.90;;;;;;5054294;28;20049;-79
2022/03/28 09:05:59;;;;;;;0.55;0.10;;;7.00;99.90;;;;;;5037837;28;20057;-80
2022/03/28 09:08:25;;;;;;;0.00;0.00;;;7.10;99.90;;;;;;5054214;28;20492;-80
2022/03/28 09:10:51;;;;;;;0.00;0.00;;;7.20;99.90;;;;;;5053854;28;20045;-79
2022/03/28 09:13:17;;;;;;;0.28;0.15;;;7.20;99.90;;;;;;5054357;28;20045;-79
2022/03/28 09:15:50;;;;;;;0.00;0.00;;;7.30;99.90;;;;;;5037058;28;20460;-79
2022/03/28 09:18:20;;;;;;;0.00;0.00;;;7.30;99.90;;;;;;5036890;28;20072;-79
2022/03/28 09:20:49;;;;;;;0.00;0.00;;;7.30;99.90;;;;;;5054031;28;20049;-79
2022/03/28 09:23:44;;;;;;;2.70;0.93;;;7.40;99.90;;;;;;5037196;28;20051;-79
2022/03/28 09:26:20;;;;;;;0.00;0.00;;;7.40;99.90;;;;;;5036682;28;20542;-79
2022/03/28 09:28:58;;;;;;;0.57;0.22;;;7.40;99.90;;;;;;5036619;28;20049;-79
2022/03/28 09:31:30;;;;;;;0.10;0.00;;;7.50;99.90;;;;;;5053296;28;20067;-79
2022/03/28 09:34:15;;;;;;;1.13;0.32;;;7.60;99.90;;;;;;5036141;28;20424;-79
2022/03/28 09:36:48;;;;;;;0.13;0.05;;;7.60;99.90;;;;;;5036667;28;20523;-79
2022/03/28 09:39:28;;;;;;;0.40;0.35;;;7.60;99.90;;;;;;5053053;28;20067;-79
2022/03/28 09:42:10;;;;;;;0.10;0.10;;;7.80;99.90;;;;;;5036801;28;20139;-79
2022/03/28 09:44:40;;;;;;;0.10;0.10;;;7.80;99.90;;;;;;5053956;28;20048;-80
2022/03/28 09:47:11;;;;;;;0.00;0.00;;;7.90;99.90;;;;;;5053189;28;20484;-79
2022/03/28 09:49:39;;;;;;;0.00;0.00;;;7.80;99.90;;;;;;5053228;28;20056;-79
2022/03/28 09:52:08;;;;;;;0.13;0.13;;;7.80;99.90;;;;;;5036649;28;20045;-79
2022/03/28 09:54:58;;;;;;;0.20;0.05;;;7.80;99.90;;;;;;5053048;28;20059;-79
2022/03/28 09:57:26;;;;;;;0.00;0.00;;;7.90;99.90;;;;;;5036504;28;20111;-80
2022/03/28 10:00:07;;;;;;;0.00;0.00;;;8.00;99.90;;;;;;5036093;28;20052;-79
2022/03/28 10:02:37;;;;;;;0.75;0.20;;;8.00;99.90;;;;;;5053116;28;20056;-79
2022/03/28 10:05:03;;;;;;;1.85;0.35;;;8.00;99.90;;;;;;5035962;28;20473;-79
2022/03/28 10:07:31;;;;;;;0.10;0.00;;;8.10;99.90;;;;;;5036278;28;20049;-79
2022/03/28 10:09:58;;;;;;;2.42;0.80;;;8.30;99.90;;;;;;5035758;28;20057;-79
2022/03/28 10:12:24;;;;;;;0.00;0.00;;;8.40;99.90;;;;;;5053047;28;20459;-79
2022/03/28 10:14:57;;;;;;;0.00;0.00;;;8.40;99.90;;;;;;5036397;28;20045;-79
2022/03/28 10:17:24;;;;;;;0.05;0.05;;;8.70;99.90;;;;;;5052358;28;20060;-79
2022/03/28 10:19:50;;;;;;;0.00;0.00;;;8.60;99.90;;;;;;5036269;28;20098;-79
2022/03/28 10:22:21;;;;;;;0.43;0.08;;;8.60;99.90;;;;;;5035825;28;20122;-79
2022/03/28 10:24:49;;;;;;;0.00;0.00;;;8.70;99.90;;;;;;5053417;28;20072;-79
2022/03/28 10:27:15;;;;;;;0.00;0.00;;;8.80;99.90;;;;;;5052806;28;20135;-79
2022/03/28 10:29:43;;;;;;;0.00;0.00;;;8.80;99.90;;;;;;5053482;28;20137;-79
2022/03/28 10:32:19;;;;;;;1.33;0.40;;;8.90;99.90;;;;;;5052581;28;20131;-79
2022/03/28 10:34:52;;;;;;;0.43;0.00;;;8.80;99.90;;;;;;5052802;28;20041;-79
2022/03/28 10:37:39;;;;;;;0.10;0.10;;;8.90;99.90;;;;;;5052934;28;20439;-79
2022/03/28 10:40:30;;;;;;;0.00;0.00;;;9.00;99.90;;;;;;5036157;28;20045;-79
2022/03/28 10:43:12;;;;;;;0.00;0.00;;;9.10;99.90;;;;;;5052240;28;20123;-79
2022/03/28 10:45:46;;;;;;;0.63;0.00;;;9.10;99.90;;;;;;5052758;28;20048;-80
2022/03/28 10:48:12;;;;;;;0.05;0.00;;;9.10;99.90;;;;;;5036010;28;20041;-80
2022/03/28 10:50:54;;;;;;;0.20;0.00;;;9.10;99.90;;;;;;5035783;28;20052;-79
2022/03/28 10:53:26;;;;;;;0.40;0.10;;;9.10;99.90;;;;;;5036574;28;20040;-79
2022/03/28 10:55:57;;;;;;;0.00;0.00;;;9.20;99.90;;;;;;5035972;28;20103;-79
2022/03/28 10:58:29;;;;;;;0.45;0.00;;;9.20;99.90;;;;;;5051958;28;20057;-79
2022/03/28 11:01:13;;;;;;;0.00;0.00;;;9.10;99.90;;;;;;5035798;28;20059;-79
2022/03/28 11:03:43;;;;;;;0.00;0.00;;;9.20;99.90;;;;;;5052633;28;20087;-79
2022/03/28 11:06:10;;;;;;;0.10;0.10;;;9.20;99.90;;;;;;5052779;28;20048;-79
2022/03/28 11:08:40;;;;;;;0.30;0.20;;;9.30;99.90;;;;;;5052023;28;20049;-79
2022/03/28 11:11:33;;;;;;;0.10;0.10;;;9.40;99.90;;;;;;5035340;28;20139;-79
2022/03/28 11:14:04;;;;;;;0.20;0.10;;;9.50;99.90;;;;;;5049229;28;20106;-79
2022/03/28 11:16:42;;;;;;;0.52;0.08;;;9.50;99.90;;;;;;5053064;28;20420;-81
2022/03/28 11:19:30;;;;;;;0.05;0.00;;;9.50;99.90;;;;;;5064407;28;20055;-80
2022/03/28 11:22:04;;;;;;;0.00;0.00;;;9.60;99.90;;;;;;5072273;28;20060;-80
2022/03/28 11:24:56;;;;;;;0.20;0.20;;;9.90;99.90;;;;;;5072226;28;20522;-80
2022/03/28 11:27:30;;;;;;;0.10;0.05;;;10.00;99.90;;;;;;5072583;28;20094;-80
2022/03/28 11:30:05;;;;;;;0.00;0.00;;;10.40;99.90;;;;;;5055864;28;20093;-80
2022/03/28 11:32:33;;;;;;;0.20;0.20;;;10.50;99.90;;;;;;5071983;28;20135;-80
2022/03/28 11:35:02;;;;;;;0.00;0.00;;;10.70;99.90;;;;;;5056192;28;20381;-80
2022/03/28 11:37:29;;;;;;;0.05;0.05;;;10.90;99.90;;;;;;5055181;28;20060;-80
2022/03/28 11:39:57;;;;;;;0.05;0.05;;;11.20;99.90;;;;;;5071752;28;20396;-79
2022/03/28 11:42:26;;;;;;;0.75;0.05;;;11.40;99.90;;;;;;5072129;28;20044;-80
2022/03/28 11:44:52;;;;;;;0.00;0.00;;;11.60;99.90;;;;;;5071929;28;20036;-80
2022/03/28 11:47:19;;;;;;;0.20;0.00;;;11.70;99.90;;;;;;5054875;28;20060;-80
2022/03/28 11:49:59;;;;;;;0.00;0.00;;;11.70;99.90;;;;;;5072804;28;20044;-80
2022/03/28 11:52:31;;;;;;;0.00;0.00;;;11.70;99.90;;;;;;5059439;28;20083;-80
2022/03/28 11:54:58;;;;;;;0.10;0.10;;;11.80;99.90;;;;;;5075452;28;20087;-80
2022/03/28 12:00:23;;;;;;;0.08;0.00;;;12.20;99.90;;;;;;5075136;28;20135;-80
2022/03/28 12:02:55;;;;;;;0.00;0.00;;;12.20;99.90;;;;;;5075254;28;20378;-80
2022/03/28 12:05:25;;;;;;;0.00;0.00;;;12.20;99.90;;;;;;5075224;28;20055;-80
2022/03/28 12:07:52;;;;;;;0.10;0.00;;;12.30;99.90;;;;;;5058333;28;20484;-80
2022/03/28 12:10:22;;;;;;;0.05;0.05;;;12.50;99.90;;;;;;5059001;28;20040;-79
2022/03/28 12:12:48;;;;;;;0.10;0.00;;;12.60;99.90;;;;;;5075318;28;20055;-81
2022/03/28 12:15:23;;;;;;;0.10;0.10;;;12.80;99.90;;;;;;5074648;28;20430;-78
2022/03/28 12:17:54;;;;;;;0.20;0.20;;;12.60;99.90;;;;;;5057994;28;20076;-80
2022/03/28 12:20:23;;;;;;;0.00;0.00;;;12.70;99.90;;;;;;5074977;28;20438;-80
2022/03/28 12:22:48;;;;;;;0.00;0.00;;;12.60;99.90;;;;;;5058224;28;20480;-78
2022/03/28 12:25:29;;;;;;;0.10;0.10;;;12.90;99.90;;;;;;5058056;28;20052;-79
2022/03/28 12:28:00;;;;;;;0.00;0.00;;;13.00;99.90;;;;;;5074813;28;20053;-79
2022/03/28 12:30:32;;;;;;;0.88;0.70;;;13.00;99.90;;;;;;5074389;28;20087;-78
2022/03/28 12:33:07;;;;;;;0.00;0.00;;;13.00;99.90;;;;;;5074600;28;20045;-78
2022/03/28 12:35:32;;;;;;;;;;;13.30;99.90;;;;;;5075220;28;20083;-79
2022/03/28 12:38:00;;;;;;;0.10;0.03;;;13.60;99.90;;;;;;5074722;28;19921;-78
2022/03/28 12:40:28;;;;;;;0.10;0.10;;;13.80;99.90;;;;;;5058039;28;20044;-78
2022/03/28 12:42:54;;;;;;;0.00;0.00;;;13.90;99.90;;;;;;5057805;28;20049;-79
2022/03/28 12:45:24;;;;;;;1.08;0.70;;;13.70;99.90;;;;;;5057809;28;20060;-78
2022/03/28 12:47:58;;;;;;;0.75;0.75;;;13.70;99.90;;;;;;5075152;28;20434;-78
2022/03/28 12:50:26;;;;;;;0.95;0.10;;;13.80;99.90;;;;;;5074110;28;20048;-79
2022/03/28 12:53:16;;;;;;;0.00;0.00;;;13.90;99.90;;;;;;5057797;28;20084;-78
2022/03/28 12:55:43;;;;;;;7.25;0.25;;;14.10;99.90;;;;;;5057266;28;20142;-78
2022/03/28 12:58:13;;;;;;;0.00;0.00;;;14.10;99.90;;;;;;5057374;28;20044;-79
2022/03/28 13:00:42;;;;;;;4.80;0.80;;;14.30;99.90;;;;;;5074428;28;20056;-79
2022/03/28 13:03:08;;;;;;;0.10;0.08;;;14.30;99.90;;;;;;5057534;28;20059;-78
2022/03/28 13:05:34;;;;;;;0.00;0.00;;;14.30;99.90;;;;;;5073663;28;20462;-79